Главная страница
METAR-TAF:

METAR-TAF

Аэропорты :

Линчёпинг, Швеция

широта: 58-24N, долгота: 015-41E, высота над уровнем моря: 52 м

Текущие метеонаблюдения

Эта сводка был подготовлена 34 минут назад, в 18:20 UTC
Ветер 7 Узел от юго-западный, изменяющийся между южный и западный-юго-западный
Температура 10°C
Влажность 87%
Давление 1030 hPa
Видимость 10 км и более
Рассеянная облачность на высоте 3100 фута

METAR: ESSL 151820Z 22007KT 190V250 9999 BKN031 10/08 Q1030

Время: 19:54 (18:54 UTC)

Прогноз

Эта сводка был подготовлена 1 час и 24 минут назад, в 17:30 UTC
Прогноз действительный с 15-го 18 UTC до 15-го 23 UTC
Ветер 8 Узел от южный-юго-западный
Видимость 10 км и более
Рассеянная облачность на высоте 3000 фута

TAF: ESSL 151730Z 1518/1523 21008KT 9999 BKN030 RMK MIL

Метеонаблюдения и прогнозы для более 4000 аэропортов (сводки METAR и TAF).

Имеющиеся станции представлены на карте желтыми и красными точками.

Чтобы увидеть название станции, наведите на нее мышь.

Затем щелкните, чтобы увидеть метеонаблюдения и метеопрогнозы.

Управление картой: чтобы увеличить масштаб, щелкните зеленые кнопки с черным крестиком; чтобы уменьшить масштаб, щелкните зеленую кнопку с тире; для просмотра соседних карт щелкайте зеленые стрелки.


METAR-TAF: